14 sierpnia 2022

Czas Kod Pogoda Temp. Widoczność Sufit Wiatr METAR/SPECI
5:00 pm
V
82 °F 15 mi - 150° 150° 11 - 18 kt METAR CYYC 142300Z 15011G18KT 090V160 15SM FEW075 FEW280 28/06 A3001 RMK AC1CI1 AC TR CI TR SLP155 DENSITY ALT 5800FT
4:00 pm
V
81 °F 15 mi - 160° 160° 7 kt METAR CYYC 142200Z 16007KT 090V180 15SM FEW075 SCT280 27/05 A3002 RMK AC1CI1 AC TR CI TR SLP159 DENSITY ALT 5800FT
3:00 pm
V
81 °F 15 mi - 170° 170° 5 kt METAR CYYC 142100Z 17005KT 060V190 15SM FEW075 FEW280 27/06 A3004 RMK CU1CC1 CU TR CC TR SLP165 DENSITY ALT 5700FT
2:00 pm
V
79 °F 15 mi - 150° 150° 7 kt METAR CYYC 142000Z 15007KT 120V220 15SM FEW075 FEW280 26/06 A3005 RMK CU1CC1 CU TR CC TR SLP169 DENSITY ALT 5600FT
1:00 pm
V
77 °F 15 mi - 150° 150° 10 kt METAR CYYC 141900Z 15010KT 120V190 15SM FEW075 FEW280 25/07 A3007 RMK CU1CC1 CU TR SLP175 DENSITY ALT 5400FT
12:00 pm
V
73 °F 15 mi - 140° 140° 10 kt METAR CYYC 141800Z 14010KT 080V160 15SM FEW280 23/06 A3009 RMK CC1 SLP179 DENSITY ALT 5200FT
11:00 am
V
72 °F 15 mi - 130° 130° 6 kt METAR CYYC 141700Z 13006KT 110V190 15SM FEW280 22/07 A3009 RMK CC2 SLP183 DENSITY ALT 5000FT
10:00 am
V
68 °F 15 mi - 180° 180° 3 kt METAR CYYC 141600Z 18003KT 15SM FEW280 20/08 A3010 RMK CC2 SLP185 DENSITY ALT 4800FT
9:00 am
V
64 °F 15 mi - 230° 230° 3 kt METAR CYYC 141500Z 23003KT 190V260 15SM SCT280 18/08 A3010 RMK CC3 SLP186 DENSITY ALT 4600FT
8:00 am
V
61 °F 15 mi 28.000 ft 290° 290° 4 kt METAR CYYC 141400Z 29004KT 15SM BKN280 16/08 A3008 RMK CC5 SLP177 DENSITY ALT 4400FT
7:00 am
V
57 °F 20 mi 23.000 ft 250° 250° 3 kt METAR CYYC 141300Z 25003KT 20SM FEW160 BKN230 14/08 A3009 RMK AC2CI3 SLP179 DENSITY ALT 4200FT
6:00 am
V
57 °F 15 mi 23.000 ft 260° 260° 2 kt METAR CYYC 141200Z 26002KT 15SM BKN230 14/08 A3009 RMK CI5 SLP178 DENSITY ALT 4100FT
5:00 am
V
55 °F 15 mi - 340° 340° 8 kt METAR CYYC 141100Z 34008KT 15SM FEW230 13/08 A3007 RMK CI2 SLP172 DENSITY ALT 4100FT
4:00 am
V
57 °F 15 mi - 360° 360° 13 kt METAR CYYC 141000Z 36013KT 15SM SKC 14/08 A3006 RMK SLP172 DENSITY ALT 4200FT
3:00 am
V
55 °F 15 mi - 020° 020° 7 kt METAR CYYC 140900Z 02007KT 15SM FEW230 13/07 A3004 RMK CI1 CI TR SLP162 DENSITY ALT 4100FT
2:00 am
V
59 °F 15 mi - 340° 340° 6 kt METAR CYYC 140800Z 34006KT 15SM SKC 15/07 A3001 RMK SLP150 DENSITY ALT 4400FT
1:00 am
V
61 °F 15 mi - 340° 340° 5 kt METAR CYYC 140700Z 34005KT 15SM FEW220 16/08 A3000 RMK CI1 CI TR SLP144 DENSITY ALT 4500FT
12:00 am
V
66 °F 15 mi - Var Var 2 kt METAR CYYC 140600Z VRB02KT 15SM SKC 19/07 A2997 RMK SLP131 DENSITY ALT 4900FT

13 sierpnia 2022

Czas Kod Pogoda Temp. Widoczność Sufit Wiatr METAR/SPECI
11:00 pm
V
66 °F 15 mi - 350° 350° 4 kt METAR CYYC 140500Z 35004KT 15SM SKC 19/07 A2996 RMK SLP129 DENSITY ALT 4900FT
10:00 pm
V
68 °F 15 mi - 340° 340° 7 kt METAR CYYC 140400Z 34007KT 15SM FEW160 FEW220 20/08 A2995 RMK AC1CI1 CI TR SLP128 DENSITY ALT 5100FT
9:00 pm
V
73 °F 20 mi - 340° 340° 7 kt METAR CYYC 140300Z 34007KT 20SM FEW160 FEW230 23/07 A2993 RMK AC1CI1 CI TR SLP122 DENSITY ALT 5300FT
8:00 pm
V
79 °F 20 mi 18.000 ft 340° 340° 8 kt METAR CYYC 140200Z 34008KT 20SM FEW089 BKN180 26/05 A2990 RMK AC1AC1 AC TR SLP111 DENSITY ALT 5800FT
7:00 pm
V
84 °F 20 mi - 300° 300° 10 kt METAR CYYC 140100Z 30010KT 20SM FEW100 FEW220 29/04 A2990 RMK AC1CI1 AC TR CB TOP N MOVG NE SLP112 DENSITY ALT 6000FT
6:00 pm
V
84 °F 20 mi - 300° 300° 9 - 16 kt METAR CYYC 140000Z 30009G16KT 20SM FEW100CB FEW140 FEW220 29/04 A2992 RMK CB1AC1CI1 CI TR CB NW-NE MOVG NE SLP117 DENSITY ALT 6100FT
5:00 pm
V
86 °F 20 mi - 290° 290° 11 kt METAR CYYC 132300Z 29011KT 20SM SCT150CB 30/04 A2993 RMK CB3 CB W-E / VIRGA E SLP119 DENSITY ALT 6100FT
4:00 pm
V
82 °F 20 mi - 310° 310° 16 kt METAR CYYC 132200Z 31016KT 220V320 20SM SCT140CB 28/05 A2994 RMK CB4 CB ALL QUADS MOVG NE SLP126 DENSITY ALT 5900FT
3:08 pm
V
86 °F 20 mi 11.000 ft 230° 230° 10 - 16 kt METAR CYYC 132108Z 23010G16KT 210V280 20SM BKN110CB 30/05 A2994 RMK CB6 SLP123 DENSITY ALT 6200FT
3:00 pm
V
84 °F 20 mi 11.000 ft 240° 240° 10 - 17 kt METAR CYYC 132100Z CCA 24010G17KT 200V270 20SM BKN110CB 29/05 A2995 RMK CB7 OCNL -SHRA SLP126 DENSITY ALT 6100FT
2:43 pm
V
82 °F 20 mi 11.000 ft 210° 210° 13 kt METAR CYYC 132043Z 21013KT 20SM -SHRA BKN110 28/05 A2995 RMK ACC7 SLP127 DENSITY ALT 5900FT
2:00 pm
V
86 °F 20 mi 12.000 ft 150° 150° 7 kt METAR CYYC 132000Z 15007KT 20SM BKN120 BKN220 30/04 A2994 RMK AC5CI1 CI TR CVCTV CLD EMBD / SH S-SW SLP122 DENSITY ALT 6100FT
1:00 pm
V
84 °F 30 mi - Var 000° 0 kt METAR CYYC 131900Z 00000KT 30SM FEW065 FEW140 29/04 A2996 RMK CU1AC1 AC TR SLP125 DENSITY ALT 6000FT
12:00 pm
V
82 °F 40 mi - 270° 270° 4 kt METAR CYYC 131800Z 27004KT 190V300 40SM FEW065 FEW140 28/03 A2997 RMK CU1AC1 CU TR AC TR SLP128 DENSITY ALT 5900FT
11:00 am
V
79 °F 40 mi - 220° 220° 4 kt METAR CYYC 131700Z 22004KT 130V250 40SM FEW065 FEW140 26/09 A2998 RMK CU1AC1 CU TR AC TR SLP136 DENSITY ALT 5600FT
10:00 am
V
73 °F 40 mi - 230° 230° 7 kt METAR CYYC 131600Z 23007KT 40SM FEW057 FEW140 FEW220 23/09 A2999 RMK CU1ACC1CI1 CU TR ACC TR SLP143 DENSITY ALT 5300FT
9:00 am
V
70 °F 40 mi - 220° 220° 6 kt METAR CYYC 131500Z 22006KT 40SM FEW140 FEW220 21/09 A3000 RMK ACC1CI1 ACC TR SLP141 DENSITY ALT 5000FT
8:00 am
V
64 °F 40 mi - 220° 220° 4 kt METAR CYYC 131400Z 22004KT 40SM FEW140 FEW220 18/08 A3000 RMK AC1CI1 AC TR ACC ASOCTD SLP144 DENSITY ALT 4700FT
7:00 am
V
59 °F 20 mi - 220° 220° 3 kt METAR CYYC 131300Z 22003KT 20SM FEW140 FEW220 15/10 A3000 RMK AC1CI1 SLP144 DENSITY ALT 4400FT
6:00 am
V
59 °F 15 mi - Var Var 2 kt METAR CYYC 131200Z VRB02KT 15SM FEW140 15/10 A2999 RMK AC1 VIRGA NE SLP140 DENSITY ALT 4400FT
5:00 am
V
61 °F 15 mi 13.000 ft 300° 300° 8 - 16 kt METAR CYYC 131100Z 30008G16KT 15SM BKN130 BKN230 16/10 A3000 RMK AC5CI1 SLP141 DENSITY ALT 4500FT
4:00 am
V
59 °F 15 mi - 010° 010° 5 kt METAR CYYC 131000Z 01005KT 210V010 15SM FEW140 SCT240 15/12 A3000 RMK AC1CI2 DIST OCNL LTNG N SLP142 DENSITY ALT 4400FT
3:00 am
V
61 °F 15 mi - 170° 170° 6 kt METAR CYYC 130900Z 17006KT 15SM FEW150 FEW220 16/11 A2999 RMK AC1CI1 SLP141 DENSITY ALT 4500FT
2:00 am
V
63 °F 15 mi - 320° 320° 3 kt METAR CYYC 130800Z 32003KT 15SM FEW220 17/12 A2999 RMK CI2 DIST OCNL LTNG N SLP140 DENSITY ALT 4700FT
1:00 am
V
68 °F 15 mi - 170° 170° 7 kt METAR CYYC 130700Z 17007KT 15SM FEW220 20/10 A2999 RMK CI2 DIST OCNL LTNG N SLP139 DENSITY ALT 4900FT
12:00 am
V
70 °F 15 mi 22.000 ft 130° 130° 8 kt METAR CYYC 130600Z 13008KT 15SM FEW110 BKN220 21/09 A3001 RMK AC2CI3 DIST FRQ LTNG N SLP146 DENSITY ALT 5000FT

12 sierpnia 2022

Czas Kod Pogoda Temp. Widoczność Sufit Wiatr METAR/SPECI
11:00 pm
V
68 °F 15 mi 10.000 ft 080° 080° 9 - 17 kt METAR CYYC 130500Z 08009G17KT 15SM FEW055CB BKN100 20/11 A3002 RMK CB1AC4 DIST OCNL LTNG N-NE SLP153 DENSITY ALT 4900FT
10:43 pm
V
66 °F 15 mi 11.000 ft 080° 080° 11 - 17 kt METAR CYYC 130443Z 08011G17KT 15SM VCSH FEW055CB BKN110 19/12 A3003 RMK CB2AC3 SH N-NE/OCNL -SHRA/DIST OCNL LTNG N-NE SLP157 DENSITY ALT 4800FT
10:29 pm
V
68 °F 15 mi 11.000 ft 060° 060° 10 kt METAR CYYC 130429Z 06010KT 15SM -TSRA FEW055CB BKN110 20/13 A3004 RMK CB2AC5 PCPN VRY LGT/OCNL -SHRA/OCNL LTGICCG NE SLP161 DENSITY ALT 4900FT
10:16 pm
V
70 °F 15 mi 11.000 ft 040° 040° 6 kt METAR CYYC 130416Z 04006KT 350V060 15SM TS VCSH SCT055CB BKN110 21/11 A3005 RMK CB3AC4 SH N-NE/FRQ LTGICCC N-NE/CB N-NE MOVG NE SLP162 DENSITY ALT 5000FT
10:00 pm
V
68 °F 5 mi 5.500 ft 360° 360° 16 - 32 kt METAR CYYC 130400Z 36016G32KT 5SM -TSRA BR BKN055CB BKN099 20/09 A3005 RMK CB5AC2 FRQ LTGICCG ALQDS/CB ALQDS MOVG E/CLRG FM SW-NW SLP163 DENSITY ALT 4900FT
9:54 pm
V
70 °F 5 mi 5.600 ft 360° 360° 21 - 32 kt METAR CYYC 130354Z 36021G32KT 290V020 5SM R29/5500VP6000FT/D TSRA BR BKN056CB BKN098 21/10 A3005 RMK CB6AC1 FRQ LTGICCG ALQDS/CB ALQDS MOVG E SLP163 DENSITY ALT 5000FT
9:17 pm
V
73 °F 15 mi 5.600 ft Var Var 6 - 16 kt METAR CYYC 130317Z VRB06G16KT 15SM -TSRA BKN056CB BKN100 23/12 A3002 RMK CB6AC1 FRQ LTGICCG ALQDS/ CB ALQDS MOVG E PRESRR SLP153 DENSITY ALT 5300FT
9:00 pm
V
79 °F 15 mi 5.600 ft 170° 170° 3 kt METAR CYYC 130300Z CCA 17003KT 15SM TS VCSH BKN056CB BKN100 26/12 A3001 RMK CB5AC2 SH SW-W/FRQ LTGICCG ALQDS/CB ALQDS MOVG E SLP144 DENSITY ALT 5600FT
8:53 pm
V
79 °F 15 mi 10.000 ft 150° 150° 8 kt METAR CYYC 130253Z 15008KT 15SM TS SCT056CB BKN100 26/11 A3000 RMK CB3AC4 FRQ LTGICCG SW-W/CB SW-W MOVG E SLP144 DENSITY ALT 5700FT
8:00 pm
V
81 °F 20 mi 20.000 ft 120° 120° 11 - 16 kt METAR CYYC 130200Z 12011G16KT 20SM FEW046 SCT100 BKN200 27/12 A3001 RMK SC1ACC3CI3 SC TR DIST CB TOPS SE+W SLP147 DENSITY ALT 5800FT
7:00 pm
V
86 °F 15 mi - 130° 130° 16 kt METAR CYYC 130100Z 13016KT 15SM FEW092 FEW240 30/11 A3001 RMK AC1CI2 AC TR SLP146 DENSITY ALT 6000FT
6:00 pm
V
88 °F 15 mi 22.000 ft 120° 120° 12 kt METAR CYYC 130000Z 12012KT 15SM FEW065CB SCT180 BKN220 31/07 A3001 RMK CB2AC2CI3 CB E-S MOVG NE SLP145 DENSITY ALT 6200FT
5:00 pm
V
88 °F 15 mi - 100° 100° 7 - 16 kt METAR CYYC 122300Z 10007G16KT 070V150 15SM FEW065CB SCT220 31/08 A3002 RMK CB2CI1 CB N AND S MOVG NE SLP150 DENSITY ALT 6100FT
4:12 pm
V
88 °F 15 mi - 130° 130° 8 - 15 kt METAR CYYC 122212Z 13008G15KT 090V170 15SM FEW065 SCT220 31/07 A3003 RMK CU1CI2 CB TOP NW / WSHFT 2201 SLP153 DENSITY ALT 6200FT
4:00 pm
V
88 °F 20 mi - 200° 200° 5 kt METAR CYYC 122200Z 20005KT 120V210 20SM FEW065 FEW220 31/08 A3004 RMK CU1CI1 CB TOP NW SLP156 DENSITY ALT 6100FT
3:00 pm
V
86 °F 20 mi - Var 000° 0 kt METAR CYYC 122100Z 00000KT 20SM FEW065 FEW220 30/10 A3006 RMK CU1CI1 CB TOP NW SLP165 DENSITY ALT 6000FT
2:00 pm
V
84 °F 20 mi - 160° 160° 7 kt METAR CYYC 122000Z 16007KT 090V210 20SM FEW065 FEW220 29/10 A3008 RMK CU1CI1 TCU ASOCTD SLP174 DENSITY ALT 5800FT
1:00 pm
V
81 °F 20 mi - 160° 160° 9 - 15 kt METAR CYYC 121900Z 16009G15KT 20SM FEW065 FEW220 27/11 A3011 RMK CU1CI1 CU TR CI TR SLP182 DENSITY ALT 5700FT
12:00 pm
V
81 °F 20 mi - 180° 180° 10 kt METAR CYYC 121800Z 18010KT 140V200 20SM FEW060 FEW220 27/09 A3012 RMK CU1CI1 CU TR CI TR HZ SLP185 DENSITY ALT 5600FT
11:00 am
V
77 °F 30 mi - 120° 120° 8 kt METAR CYYC 121700Z 12008KT 110V190 30SM FEW060 FEW220 25/08 A3013 RMK CU1CI1 CU TR CI TR HZ SLP190 DENSITY ALT 5400FT
10:00 am
V
73 °F 30 mi - 200° 200° 6 kt METAR CYYC 121600Z 20006KT 30SM FEW180 23/09 A3014 RMK AC1 AC TR HZ SLP193 DENSITY ALT 5200FT
9:00 am
V
70 °F 30 mi - 170° 170° 2 kt METAR CYYC 121500Z 17002KT 30SM FEW180 21/11 A3015 RMK AC1 HZ SLP199 DENSITY ALT 4900FT
Starsze dane

My i osoby trzecie śledzimy twoje zachowanie w internecie na naszej stronie za pomocą plików cookie. Jeśli kontynuujesz, zakładamy, że zgadzasz się z naszą polityką plików cookie. Dowiedz się więcej